createdAt,value
2018-02-23T00:02:16.582Z,-2.90
2018-02-23T00:04:52.744Z,-2.90
2018-02-23T00:07:42.940Z,-2.90
2018-02-23T00:10:15.094Z,-2.80
2018-02-23T00:12:48.035Z,-2.90
2018-02-23T00:15:18.713Z,-2.90
2018-02-23T00:17:50.534Z,-2.80
2018-02-23T00:20:37.711Z,-2.90
2018-02-23T00:23:10.576Z,-2.80
2018-02-23T00:25:46.666Z,-2.80
2018-02-23T00:28:17.064Z,-2.80
2018-02-23T00:30:47.155Z,-2.90
2018-02-23T00:33:21.958Z,-2.90
2018-02-23T00:35:54.186Z,-2.90
2018-02-23T00:38:24.134Z,-2.90
2018-02-23T00:40:54.593Z,-2.90
2018-02-23T00:43:33.705Z,-3.00
2018-02-23T00:46:06.752Z,-3.00
2018-02-23T00:48:39.080Z,-3.00
2018-02-23T00:51:12.567Z,-3.00
2018-02-23T00:53:42.581Z,-3.00
2018-02-23T00:56:12.308Z,-3.10
2018-02-23T00:58:54.221Z,-3.10
2018-02-23T01:01:24.294Z,-3.20
2018-02-23T01:04:07.299Z,-3.30
2018-02-23T01:06:37.036Z,-3.30
2018-02-23T01:09:06.756Z,-3.40
2018-02-23T01:11:40.601Z,-3.30
2018-02-23T01:14:14.034Z,-3.40
2018-02-23T01:16:53.217Z,-3.40
2018-02-23T01:19:24.304Z,-3.50
2018-02-23T01:22:05.892Z,-3.40
2018-02-23T01:24:37.667Z,-3.50
2018-02-23T01:27:08.516Z,-3.40
2018-02-23T01:29:39.427Z,-3.40
2018-02-23T01:32:09.664Z,-3.40
2018-02-23T01:34:40.952Z,-3.40
2018-02-23T01:37:18.094Z,-3.40
2018-02-23T01:39:48.828Z,-3.40
2018-02-23T01:42:18.645Z,-3.40
2018-02-23T01:44:58.723Z,-3.50
2018-02-23T01:47:30.598Z,-3.50
2018-02-23T01:50:02.550Z,-3.50
2018-02-23T01:52:34.476Z,-3.60
2018-02-23T01:55:05.871Z,-3.60
2018-02-23T01:57:41.203Z,-3.70
2018-02-23T02:00:12.128Z,-3.60
2018-02-23T02:02:41.946Z,-3.60
2018-02-23T02:05:13.194Z,-3.60
2018-02-23T02:07:44.562Z,-3.60
2018-02-23T02:10:15.044Z,-3.60
2018-02-23T02:12:46.326Z,-3.60
2018-02-23T02:15:16.661Z,-3.60
2018-02-23T02:17:47.879Z,-3.60
2018-02-23T02:20:19.213Z,-3.60
2018-02-23T02:22:49.712Z,-3.60
2018-02-23T02:25:24.570Z,-3.60
2018-02-23T02:27:55.210Z,-3.70
2018-02-23T02:30:25.399Z,-3.70
2018-02-23T02:32:55.684Z,-3.70
2018-02-23T02:35:25.312Z,-3.80
2018-02-23T02:37:57.919Z,-3.70
2018-02-23T02:40:39.413Z,-3.70
2018-02-23T02:43:10.775Z,-3.60
2018-02-23T02:45:40.178Z,-3.70
2018-02-23T02:48:11.423Z,-3.60
2018-02-23T02:50:44.814Z,-3.60
2018-02-23T02:53:15.784Z,-3.60
2018-02-23T02:55:45.802Z,-3.70
2018-02-23T02:58:20.194Z,-3.70
2018-02-23T03:00:49.668Z,-3.70
2018-02-23T03:03:19.770Z,-3.70
2018-02-23T03:05:51.807Z,-3.80
2018-02-23T03:08:22.276Z,-3.70
2018-02-23T03:10:51.882Z,-3.80
2018-02-23T03:13:29.667Z,-3.80
2018-02-23T03:16:06.880Z,-3.80
2018-02-23T03:18:45.842Z,-3.70
2018-02-23T03:21:23.633Z,-3.70
2018-02-23T03:24:06.318Z,-3.70
2018-02-23T03:26:48.813Z,-3.80
2018-02-23T03:29:28.549Z,-3.80
2018-02-23T03:32:06.694Z,-3.80
2018-02-23T03:34:49.913Z,-3.80
2018-02-23T03:37:30.718Z,-3.90
2018-02-23T03:40:03.253Z,-4.00
2018-02-23T03:42:32.520Z,-3.90
2018-02-23T03:45:03.565Z,-4.00
2018-02-23T03:47:33.288Z,-4.00
2018-02-23T03:50:04.445Z,-4.00
2018-02-23T03:52:35.562Z,-3.90
2018-02-23T03:55:05.974Z,-4.00
2018-02-23T03:57:36.458Z,-3.90
2018-02-23T04:00:07.561Z,-3.90
2018-02-23T04:02:37.574Z,-4.00
2018-02-23T04:05:08.346Z,-4.00
2018-02-23T04:07:40.191Z,-4.00
2018-02-23T04:10:16.335Z,-4.10
2018-02-23T04:12:50.376Z,-4.10
2018-02-23T04:15:22.771Z,-4.20
2018-02-23T04:17:54.078Z,-4.20
2018-02-23T04:20:25.612Z,-4.20
2018-02-23T04:22:56.250Z,-4.20
2018-02-23T04:25:27.294Z,-4.20
2018-02-23T04:27:58.423Z,-4.30
2018-02-23T04:30:33.281Z,-4.20
2018-02-23T04:33:04.134Z,-4.10
2018-02-23T04:36:29.389Z,-4.10
2018-02-23T04:39:21.339Z,-4.10
2018-02-23T04:41:52.387Z,-4.10
2018-02-23T04:44:24.467Z,-4.10
2018-02-23T04:46:55.311Z,-4.10
2018-02-23T04:49:32.776Z,-4.10
2018-02-23T04:52:08.566Z,-4.10
2018-02-23T04:54:43.165Z,-4.10
2018-02-23T04:57:14.274Z,-4.10
2018-02-23T04:59:45.639Z,-4.10
2018-02-23T05:02:16.575Z,-4.10
2018-02-23T05:04:52.637Z,-4.20
2018-02-23T05:07:27.547Z,-4.20
2018-02-23T05:10:18.587Z,-4.10
2018-02-23T05:12:50.252Z,-4.10
2018-02-23T05:15:19.912Z,-4.10
2018-02-23T05:17:50.413Z,-4.10
2018-02-23T05:20:34.591Z,-4.20
2018-02-23T05:23:30.834Z,-4.30
2018-02-23T05:26:11.650Z,-4.30
2018-02-23T05:28:59.806Z,-4.20
2018-02-23T05:31:31.035Z,-4.20
2018-02-23T05:34:04.103Z,-4.30
2018-02-23T05:36:36.999Z,-4.30
2018-02-23T05:39:10.584Z,-4.40
2018-02-23T05:41:42.691Z,-4.40
2018-02-23T05:44:16.609Z,-4.40
2018-02-23T05:46:48.326Z,-4.40
2018-02-23T05:49:40.862Z,-4.50
2018-02-23T05:52:12.105Z,-4.40
2018-02-23T05:54:45.093Z,-4.40
2018-02-23T05:57:24.188Z,-4.40
2018-02-23T05:59:59.205Z,-4.50
2018-02-23T06:02:31.417Z,-4.40
2018-02-23T06:05:02.566Z,-4.40
2018-02-23T06:07:36.205Z,-4.40
2018-02-23T06:13:30.455Z,-4.50
2018-02-23T06:16:05.456Z,-4.50
2018-02-23T06:18:47.936Z,-4.60
2018-02-23T06:21:28.777Z,-4.50
2018-02-23T06:24:02.285Z,-4.60
2018-02-23T06:26:33.938Z,-4.60
2018-02-23T06:29:09.476Z,-4.60
2018-02-23T06:32:36.117Z,-4.60
2018-02-23T06:39:06.906Z,-4.60
2018-02-23T06:43:13.748Z,-4.50
2018-02-23T06:45:53.333Z,-4.50
2018-02-23T06:51:15.512Z,-4.50
2018-02-23T06:53:46.668Z,-4.30
2018-02-23T06:56:44.713Z,-4.40
2018-02-23T07:02:33.142Z,-4.40
2018-02-23T07:05:05.336Z,-4.30
2018-02-23T07:07:37.814Z,-4.30
2018-02-23T07:10:09.362Z,-4.30
2018-02-23T07:12:49.909Z,-4.20
2018-02-23T07:15:20.472Z,-4.20
2018-02-23T07:18:04.889Z,-4.20
2018-02-23T07:21:06.800Z,-4.10
2018-02-23T07:23:40.021Z,-4.10
2018-02-23T07:26:28.921Z,-4.00
2018-02-23T07:29:00.807Z,-3.90
2018-02-23T07:31:37.279Z,-3.90
2018-02-23T07:34:11.804Z,-3.90
2018-02-23T07:40:00.540Z,-3.70
2018-02-23T07:42:30.866Z,-2.60
2018-02-23T07:48:37.257Z,0.70
2018-02-23T07:51:49.917Z,0.80
2018-02-23T07:54:56.067Z,1.60
2018-02-23T07:57:33.531Z,1.50
2018-02-23T08:00:04.905Z,1.60
2018-02-23T08:02:42.499Z,1.60
2018-02-23T08:05:22.907Z,1.00
2018-02-23T08:08:10.087Z,1.00
2018-02-23T08:10:46.765Z,1.70
2018-02-23T08:13:22.674Z,1.60
2018-02-23T08:16:19.713Z,1.50
2018-02-23T08:19:54.120Z,1.20
2018-02-23T08:22:40.438Z,2.10
2018-02-23T08:25:47.927Z,2.30
2018-02-23T08:31:48.666Z,0.20
2018-02-23T08:35:30.552Z,0.20
2018-02-23T08:38:39.732Z,0.80
2018-02-23T08:41:13.294Z,1.20
2018-02-23T08:43:47.048Z,1.20
2018-02-23T08:46:22.023Z,0.40
2018-02-23T08:48:52.656Z,0.80
2018-02-23T08:51:23.815Z,0.80
2018-02-23T08:53:56.579Z,1.00
2018-02-23T08:56:31.913Z,0.00
2018-02-23T08:59:02.808Z,-0.20
2018-02-23T09:01:51.925Z,0.30
2018-02-23T09:04:23.292Z,1.60
2018-02-23T09:06:55.292Z,0.80
2018-02-23T09:09:26.211Z,-1.00
2018-02-23T09:11:56.135Z,-1.10
2018-02-23T09:14:27.267Z,-1.40
2018-02-23T09:16:59.605Z,-1.50
2018-02-23T09:19:47.033Z,-1.50
2018-02-23T09:22:41.152Z,-1.60
2018-02-23T09:25:36.902Z,-1.80
2018-02-23T09:29:55.588Z,-1.80
2018-02-23T09:35:57.117Z,-1.70
2018-02-23T09:38:40.267Z,-2.00
2018-02-23T09:41:51.481Z,-2.00
2018-02-23T09:44:47.951Z,-1.90
2018-02-23T09:47:23.973Z,-1.90
2018-02-23T09:50:02.944Z,-1.80
2018-02-23T09:53:27.975Z,-1.80
2018-02-23T09:59:57.179Z,-1.70
2018-02-23T10:02:37.330Z,-1.70
2018-02-23T10:05:27.084Z,-1.50
2018-02-23T10:07:58.663Z,-1.50
2018-02-23T10:10:29.916Z,-1.40
2018-02-23T10:13:07.318Z,-1.40
2018-02-23T10:16:23.084Z,-1.30
2018-02-23T10:18:55.781Z,-1.30
2018-02-23T10:21:36.706Z,-1.60
2018-02-23T10:24:13.309Z,-1.50
2018-02-23T10:26:58.350Z,-1.20
2018-02-23T10:30:05.970Z,-1.00
2018-02-23T10:32:47.904Z,-0.90
2018-02-23T10:35:25.144Z,-0.90
2018-02-23T10:38:08.586Z,-1.20
2018-02-23T10:40:40.223Z,-1.10
2018-02-23T10:46:47.654Z,-1.10
2018-02-23T10:51:59.077Z,-1.00
2018-02-23T10:54:37.347Z,-0.70
2018-02-23T10:57:31.139Z,-0.50
2018-02-23T11:00:33.023Z,-0.50
2018-02-23T11:06:45.635Z,-0.60
2018-02-23T11:09:33.627Z,-0.50
2018-02-23T11:12:05.649Z,-0.50
2018-02-23T11:14:42.536Z,-0.30
2018-02-23T11:17:13.008Z,-0.20
2018-02-23T11:19:47.177Z,0.00
2018-02-23T11:22:18.432Z,-0.10
2018-02-23T11:24:53.634Z,-0.10
2018-02-23T11:27:28.645Z,-0.20
2018-02-23T11:30:05.225Z,0.10
2018-02-23T11:35:58.211Z,-0.10
2018-02-23T11:38:31.559Z,0.00
2018-02-23T11:41:02.173Z,0.00
2018-02-23T11:43:54.275Z,0.10
2018-02-23T11:46:24.212Z,0.30
2018-02-23T11:48:58.197Z,0.30
2018-02-23T11:51:29.707Z,0.20
2018-02-23T11:54:18.205Z,0.20
2018-02-23T11:56:52.046Z,0.20
2018-02-23T11:59:24.583Z,0.40
2018-02-23T12:01:58.085Z,0.40
2018-02-23T12:07:51.274Z,0.50
2018-02-23T12:10:52.181Z,0.80
2018-02-23T12:13:25.805Z,0.70
2018-02-23T12:16:02.168Z,0.50
2018-02-23T12:18:45.204Z,0.40
2018-02-23T12:21:39.432Z,0.70
2018-02-23T12:24:45.265Z,0.70
2018-02-23T12:30:07.423Z,0.80
2018-02-23T12:32:55.450Z,0.70
2018-02-23T12:35:31.988Z,0.80
2018-02-23T12:38:17.086Z,0.90
2018-02-23T12:40:49.858Z,0.90
2018-02-23T12:43:21.617Z,1.20
2018-02-23T12:50:48.254Z,1.00
2018-02-23T12:54:42.453Z,0.90
2018-02-23T13:11:14.107Z,1.10
2018-02-23T13:13:56.917Z,1.20
2018-02-23T13:17:21.858Z,1.10
2018-02-23T13:20:14.626Z,1.40
2018-02-23T13:23:16.030Z,1.00
2018-02-23T13:25:51.421Z,1.10
2018-02-23T13:32:32.991Z,0.90
2018-02-23T13:36:04.064Z,1.10
2018-02-23T13:38:58.307Z,1.00
2018-02-23T13:42:12.538Z,1.00
2018-02-23T13:45:31.744Z,1.50
2018-02-23T13:48:06.334Z,1.50
2018-02-23T13:51:21.613Z,1.80
2018-02-23T13:54:38.024Z,1.70
2018-02-23T14:00:25.647Z,1.40
2018-02-23T14:02:59.652Z,1.30
2018-02-23T14:06:07.985Z,1.10
2018-02-23T14:08:52.779Z,1.30
2018-02-23T14:11:27.026Z,1.30
2018-02-23T14:18:03.176Z,1.10
2018-02-23T14:21:37.377Z,1.30
2018-02-23T14:30:23.994Z,0.80
2018-02-23T14:33:23.993Z,0.90
2018-02-23T14:40:00.042Z,0.80
2018-02-23T14:42:32.411Z,0.80
2018-02-23T14:45:05.773Z,1.00
2018-02-23T14:48:21.733Z,1.10
2018-02-23T14:51:13.726Z,1.00
2018-02-23T14:53:56.744Z,1.00
2018-02-23T14:56:33.404Z,1.00
2018-02-23T14:59:35.594Z,1.10
2018-02-23T15:02:26.832Z,0.90
2018-02-23T15:05:26.294Z,0.90
2018-02-23T15:08:05.072Z,0.80
2018-02-23T15:10:59.261Z,0.90
2018-02-23T15:17:31.105Z,0.80
2018-02-23T15:20:02.276Z,0.80
2018-02-23T15:22:35.915Z,0.70
2018-02-23T15:25:44.756Z,0.70
2018-02-23T15:28:22.493Z,0.60
2018-02-23T15:34:27.830Z,0.50
2018-02-23T15:37:26.419Z,0.50
2018-02-23T15:40:31.098Z,0.40
2018-02-23T15:43:31.949Z,0.50
2018-02-23T15:46:09.698Z,0.40
2018-02-23T15:48:43.833Z,0.40
2018-02-23T15:51:24.026Z,0.20
2018-02-23T15:54:08.373Z,0.10
2018-02-23T15:56:49.058Z,-0.10
2018-02-23T15:59:31.043Z,-0.30
2018-02-23T16:05:08.443Z,-0.30
2018-02-23T16:07:46.841Z,-0.30
2018-02-23T16:10:24.482Z,-0.30
2018-02-23T16:13:25.714Z,-0.40
2018-02-23T16:15:57.631Z,-0.30
2018-02-23T16:19:11.012Z,-0.50
2018-02-23T16:27:27.745Z,-0.70
2018-02-23T16:30:00.311Z,-0.70
2018-02-23T16:32:45.233Z,-0.80
2018-02-23T16:35:24.931Z,-0.80
2018-02-23T16:38:01.933Z,-0.80
2018-02-23T16:40:41.815Z,-0.80
2018-02-23T16:43:27.966Z,-0.90
2018-02-23T16:46:28.469Z,-1.00
2018-02-23T17:02:12.130Z,-1.20
2018-02-23T17:04:53.401Z,-1.20
2018-02-23T17:07:23.911Z,-1.40
2018-02-23T17:10:17.906Z,-1.50
2018-02-23T17:17:01.120Z,-1.50
2018-02-23T17:19:47.903Z,-1.70
2018-02-23T17:28:56.247Z,-1.90
2018-02-23T17:34:58.896Z,-2.00
2018-02-23T17:37:37.625Z,-2.10
2018-02-23T17:40:10.920Z,-2.10
2018-02-23T17:57:35.856Z,-2.10
2018-02-23T18:07:41.687Z,-2.20
2018-02-23T18:15:07.534Z,-2.30
2018-02-23T18:21:31.392Z,-2.50
2018-02-23T18:24:30.823Z,-2.50
2018-02-23T18:27:15.994Z,-2.60
2018-02-23T18:31:24.104Z,-2.60
2018-02-23T18:36:53.272Z,-2.60
2018-02-23T18:39:33.316Z,-2.70
2018-02-23T22:19:54.185Z,-4.60
2018-02-23T22:22:43.518Z,-4.60
2018-02-23T22:25:17.831Z,-4.70
2018-02-23T22:27:49.465Z,-4.70
2018-02-23T22:30:18.929Z,-4.80
2018-02-23T22:32:54.496Z,-4.70
2018-02-23T22:35:24.804Z,-4.60
2018-02-23T22:37:55.154Z,-4.60
2018-02-23T22:40:24.521Z,-4.60
2018-02-23T22:43:00.973Z,-4.70
2018-02-23T22:45:33.517Z,-4.70
2018-02-23T22:48:04.187Z,-4.70
2018-02-23T22:50:33.520Z,-4.70
2018-02-23T22:53:04.460Z,-4.70
2018-02-23T22:55:33.804Z,-4.70
2018-02-23T22:58:04.057Z,-4.60
2018-02-23T23:00:33.451Z,-4.60
2018-02-23T23:03:02.294Z,-4.70
2018-02-23T23:05:31.404Z,-4.80
2018-02-23T23:08:01.253Z,-4.80
2018-02-23T23:10:31.402Z,-5.00
2018-02-23T23:13:00.506Z,-4.90
2018-02-23T23:15:33.918Z,-5.00
2018-02-23T23:18:03.581Z,-5.00
2018-02-23T23:20:34.860Z,-5.00
2018-02-23T23:23:05.081Z,-5.00
2018-02-23T23:25:35.097Z,-5.00
2018-02-23T23:28:04.598Z,-5.00
2018-02-23T23:30:33.439Z,-5.10
2018-02-23T23:33:23.688Z,-5.10
2018-02-23T23:35:53.660Z,-5.10
2018-02-23T23:38:23.214Z,-5.10
2018-02-23T23:40:53.503Z,-5.00
2018-02-23T23:43:23.795Z,-5.10
2018-02-23T23:46:04.342Z,-5.10
2018-02-23T23:48:50.644Z,-5.10
2018-02-23T23:51:21.111Z,-5.10
2018-02-23T23:53:53.133Z,-5.10
2018-02-23T23:56:24.250Z,-5.20
2018-02-23T23:58:53.964Z,-5.20
